Time;durP1;ratioP1;P1;durP2;ratioP2;P2;SDS_P1;SDS_P2;PMS_P1;PMS_P2;Temp;Humidity;BMP_temperature;BMP_pressure;BME280_temperature;BME280_humidity;BME280_pressure;Samples;Min_cycle;Max_cycle;Signal;HPM_P1;HPM_P2
2022/03/02 00:01:37;;;;;;;1.50;1.30;;;5.60;75.00;;;;;;5029002;28;20463;-73
2022/03/02 00:04:04;;;;;;;1.50;1.30;;;5.60;75.20;;;;;;5028731;28;20463;-73
2022/03/02 00:06:31;;;;;;;1.50;1.30;;;5.60;75.20;;;;;;5027288;28;21216;-73
2022/03/02 00:08:58;;;;;;;1.50;1.30;;;5.60;75.30;;;;;;5030191;28;20463;-73
2022/03/02 00:11:25;;;;;;;1.50;1.40;;;5.60;75.50;;;;;;5029477;28;20459;-73
2022/03/02 00:13:52;;;;;;;1.50;1.30;;;5.50;75.40;;;;;;5031113;28;20494;-74
2022/03/02 00:16:18;;;;;;;1.50;1.30;;;5.50;75.60;;;;;;5030195;28;20482;-73
2022/03/02 00:18:47;;;;;;;1.50;1.30;;;5.50;75.70;;;;;;5030042;28;20487;-73
2022/03/02 00:21:13;;;;;;;1.60;1.50;;;5.40;75.70;;;;;;5027540;28;21011;-73
2022/03/02 00:23:40;;;;;;;1.50;1.30;;;5.40;76.00;;;;;;5030351;28;20466;-73
2022/03/02 00:26:07;;;;;;;1.50;1.40;;;5.30;76.10;;;;;;5030172;28;20486;-74
2022/03/02 00:28:34;;;;;;;1.50;1.40;;;5.30;76.10;;;;;;5031692;28;20528;-73
2022/03/02 00:31:01;;;;;;;1.50;1.30;;;5.20;76.20;;;;;;5028813;28;20469;-74
2022/03/02 00:33:28;;;;;;;1.50;1.30;;;5.20;76.20;;;;;;5031392;28;20467;-75
2022/03/02 00:35:56;;;;;;;1.50;1.30;;;5.20;76.30;;;;;;5031317;28;20490;-76
2022/03/02 00:38:23;;;;;;;1.60;1.50;;;5.20;76.30;;;;;;5030659;28;20460;-76
2022/03/02 00:40:50;;;;;;;1.50;1.30;;;5.10;76.30;;;;;;5028317;28;20491;-73
2022/03/02 00:43:18;;;;;;;1.50;1.27;;;5.10;76.50;;;;;;5030099;28;21027;-72
2022/03/02 00:45:45;;;;;;;1.50;1.30;;;5.10;76.40;;;;;;5030809;28;20478;-73
2022/03/02 00:48:13;;;;;;;1.70;1.60;;;5.00;76.60;;;;;;5028676;28;21015;-74
2022/03/02 00:50:41;;;;;;;1.60;1.47;;;5.00;76.60;;;;;;5028244;28;20474;-73
2022/03/02 00:53:10;;;;;;;1.50;1.40;;;5.00;76.70;;;;;;5030304;28;20923;-73
2022/03/02 00:55:37;;;;;;;1.53;1.30;;;4.90;76.70;;;;;;5024364;28;20483;-73
2022/03/02 00:58:06;;;;;;;1.60;1.50;;;4.90;76.80;;;;;;5028846;28;20455;-72
2022/03/02 01:00:33;;;;;;;1.57;1.40;;;4.90;77.00;;;;;;5023850;28;20471;-73
2022/03/02 01:03:00;;;;;;;1.70;1.60;;;4.80;77.20;;;;;;5028654;28;20467;-72
2022/03/02 01:05:27;;;;;;;1.70;1.60;;;4.80;77.50;;;;;;5025073;28;20490;-72
2022/03/02 01:07:53;;;;;;;1.63;1.53;;;4.80;77.80;;;;;;5028807;28;20495;-72
2022/03/02 01:10:22;;;;;;;1.60;1.50;;;4.70;77.80;;;;;;5027884;28;20882;-73
2022/03/02 01:12:49;;;;;;;2.60;2.40;;;4.70;77.80;;;;;;5025109;28;20470;-72
2022/03/02 01:15:16;;;;;;;1.60;1.30;;;4.60;77.80;;;;;;5028254;28;20483;-72
2022/03/02 01:17:43;;;;;;;1.50;1.40;;;4.60;77.60;;;;;;5025026;28;20459;-72
2022/03/02 01:20:12;;;;;;;1.53;1.30;;;4.60;77.20;;;;;;5027725;28;20463;-72
2022/03/02 01:22:40;;;;;;;1.97;1.87;;;4.60;77.10;;;;;;5027212;28;20460;-72
2022/03/02 01:25:08;;;;;;;1.60;1.40;;;4.60;77.10;;;;;;5029345;28;20483;-72
2022/03/02 01:27:37;;;;;;;1.70;1.60;;;4.60;77.00;;;;;;5028868;28;20494;-72
2022/03/02 01:30:05;;;;;;;1.60;1.50;;;4.60;76.80;;;;;;5028684;28;20467;-72
2022/03/02 01:32:32;;;;;;;1.60;1.50;;;4.60;76.60;;;;;;5028709;28;20455;-72
2022/03/02 01:34:59;;;;;;;1.60;1.50;;;4.60;76.50;;;;;;5028558;28;20944;-72
2022/03/02 01:37:26;;;;;;;1.60;1.40;;;4.60;76.50;;;;;;5028588;28;20455;-75
2022/03/02 01:39:53;;;;;;;1.60;1.40;;;4.60;76.50;;;;;;5028388;28;20470;-74
2022/03/02 01:42:19;;;;;;;1.57;1.40;;;4.50;76.70;;;;;;5026933;28;20468;-76
2022/03/02 01:44:47;;;;;;;1.57;1.30;;;4.50;77.10;;;;;;5022614;28;20459;-74
2022/03/02 01:47:14;;;;;;;1.50;1.30;;;4.50;77.50;;;;;;5023165;28;20479;-75
2022/03/02 01:49:41;;;;;;;1.57;1.30;;;4.40;77.90;;;;;;5026728;28;20459;-74
2022/03/02 01:52:08;;;;;;;1.53;1.30;;;4.30;78.50;;;;;;5027941;28;20462;-74
2022/03/02 01:54:34;;;;;;;1.57;1.40;;;4.30;78.90;;;;;;5029458;28;20838;-73
2022/03/02 01:57:02;;;;;;;1.57;1.40;;;4.20;79.20;;;;;;5028424;28;20476;-75
2022/03/02 01:59:29;;;;;;;1.50;1.33;;;4.10;79.60;;;;;;5028248;28;20462;-71
2022/03/02 02:01:57;;;;;;;1.60;1.40;;;4.10;80.10;;;;;;5028592;28;20489;-71
2022/03/02 02:04:24;;;;;;;1.50;1.40;;;4.00;80.20;;;;;;5029376;28;21132;-70
2022/03/02 02:06:50;;;;;;;1.57;1.40;;;3.90;80.50;;;;;;5027113;28;20491;-70
2022/03/02 02:09:17;;;;;;;1.50;1.40;;;3.90;80.60;;;;;;5027569;28;20459;-72
2022/03/02 02:11:44;;;;;;;1.53;1.40;;;3.80;80.70;;;;;;5027004;28;20474;-70
2022/03/02 02:14:11;;;;;;;1.60;1.40;;;3.70;80.90;;;;;;5027905;28;20471;-70
2022/03/02 02:16:39;;;;;;;1.53;1.40;;;3.70;80.80;;;;;;5016479;28;20514;-70
2022/03/02 02:19:07;;;;;;;1.60;1.40;;;3.60;81.10;;;;;;5026200;28;20956;-70
2022/03/02 02:21:35;;;;;;;1.60;1.50;;;3.60;80.90;;;;;;5024836;28;20466;-70
2022/03/02 02:24:02;;;;;;;1.57;1.40;;;3.60;81.00;;;;;;5028753;28;20554;-70
2022/03/02 02:26:28;;;;;;;1.60;1.50;;;3.60;80.90;;;;;;5028035;28;20554;-70
2022/03/02 02:28:55;;;;;;;1.63;1.53;;;3.50;80.90;;;;;;5028733;28;20514;-71
2022/03/02 02:31:22;;;;;;;1.60;1.40;;;3.50;80.90;;;;;;5026324;28;20859;-71
2022/03/02 02:33:51;;;;;;;1.50;1.40;;;3.50;80.80;;;;;;5022800;28;20471;-70
2022/03/02 02:36:18;;;;;;;1.50;1.30;;;3.50;80.70;;;;;;5026039;28;20562;-70
2022/03/02 02:38:46;;;;;;;1.60;1.50;;;3.60;80.80;;;;;;5027014;28;21035;-70
2022/03/02 02:41:15;;;;;;;1.60;1.50;;;3.60;80.90;;;;;;5013365;28;20471;-70
2022/03/02 02:43:43;;;;;;;1.60;1.40;;;3.50;80.90;;;;;;5025017;28;20459;-71
2022/03/02 02:46:11;;;;;;;1.57;1.40;;;3.50;81.30;;;;;;5024377;28;20961;-70
2022/03/02 02:48:38;;;;;;;1.60;1.40;;;3.50;81.40;;;;;;5026190;28;20493;-70
2022/03/02 02:51:06;;;;;;;1.50;1.40;;;3.50;81.70;;;;;;5025805;28;20844;-70
2022/03/02 02:53:33;;;;;;;1.60;1.50;;;3.40;82.00;;;;;;5027770;28;21197;-70
2022/03/02 02:56:02;;;;;;;1.53;1.40;;;3.40;82.10;;;;;;5025879;28;20951;-70
2022/03/02 02:58:29;;;;;;;1.53;1.40;;;3.40;81.60;;;;;;5027539;28;20467;-70
2022/03/02 03:00:55;;;;;;;1.60;1.50;;;3.40;81.80;;;;;;5025171;28;20491;-70
2022/03/02 03:03:22;;;;;;;1.50;1.40;;;3.40;81.80;;;;;;5027228;28;20463;-71
2022/03/02 03:05:52;;;;;;;1.60;1.40;;;3.40;82.00;;;;;;5026188;28;20487;-70
2022/03/02 03:08:19;;;;;;;1.60;1.40;;;3.40;81.80;;;;;;5025269;28;21010;-71
2022/03/02 03:10:47;;;;;;;1.60;1.40;;;3.40;81.50;;;;;;5024293;28;20463;-71
2022/03/02 03:13:16;;;;;;;2.07;1.87;;;3.40;81.70;;;;;;5024985;28;20459;-71
2022/03/02 03:15:43;;;;;;;1.60;1.50;;;3.50;81.50;;;;;;5027352;28;20490;-71
2022/03/02 03:18:10;;;;;;;1.53;1.40;;;3.50;81.60;;;;;;5026206;28;20455;-71
2022/03/02 03:20:37;;;;;;;1.57;1.40;;;3.50;81.50;;;;;;5025909;28;20617;-71
2022/03/02 03:23:07;;;;;;;1.60;1.47;;;3.50;81.60;;;;;;5024796;28;20459;-71
2022/03/02 03:25:34;;;;;;;1.57;1.40;;;3.50;81.50;;;;;;5030922;28;20487;-71
2022/03/02 03:28:01;;;;;;;1.90;1.80;;;3.50;81.60;;;;;;5030349;28;20510;-71
2022/03/02 03:30:29;;;;;;;1.60;1.50;;;3.50;81.60;;;;;;5030096;28;20463;-71
2022/03/02 03:32:56;;;;;;;1.60;1.50;;;3.60;81.80;;;;;;5031262;28;20467;-71
2022/03/02 03:35:25;;;;;;;1.60;1.50;;;3.60;81.70;;;;;;5030553;28;20489;-71
2022/03/02 03:37:52;;;;;;;1.60;1.40;;;3.60;81.60;;;;;;5030675;28;20463;-71
2022/03/02 03:40:21;;;;;;;1.60;1.50;;;3.60;81.60;;;;;;5029191;28;20467;-71
2022/03/02 03:42:48;;;;;;;1.60;1.50;;;3.70;81.70;;;;;;5026803;28;20474;-71
2022/03/02 03:45:16;;;;;;;1.53;1.40;;;3.70;81.80;;;;;;5028817;28;20475;-71
2022/03/02 03:47:44;;;;;;;1.60;1.40;;;3.70;81.90;;;;;;5030162;28;20983;-71
2022/03/02 03:50:11;;;;;;;1.57;1.37;;;3.70;82.30;;;;;;5029521;28;20466;-71
2022/03/02 03:52:39;;;;;;;1.57;1.40;;;3.70;82.20;;;;;;5029983;28;20463;-71
2022/03/02 03:55:07;;;;;;;1.57;1.30;;;3.70;82.20;;;;;;5029812;28;20486;-71
2022/03/02 03:57:34;;;;;;;1.57;1.40;;;3.70;82.20;;;;;;5028000;28;20460;-71
2022/03/02 04:00:01;;;;;;;1.53;1.40;;;3.80;81.90;;;;;;5029930;28;20470;-71
2022/03/02 04:02:28;;;;;;;1.60;1.43;;;3.80;81.90;;;;;;5027886;28;20550;-71
2022/03/02 04:04:56;;;;;;;1.50;1.40;;;3.80;81.80;;;;;;5026742;28;20466;-71
2022/03/02 16:09:55;;;;;;;1.50;1.00;;;12.50;52.40;;;;;;5050308;22;20867;-74
2022/03/02 16:12:55;;;;;;;1.50;1.10;;;12.40;52.80;;;;;;5028416;28;20459;-73
2022/03/02 16:15:39;;;;;;;1.50;1.00;;;12.30;52.50;;;;;;5021794;28;20478;-75
2022/03/02 16:18:08;;;;;;;1.50;1.00;;;12.30;53.10;;;;;;5022366;28;20512;-73
2022/03/02 16:20:35;;;;;;;1.50;1.00;;;12.20;53.10;;;;;;5020211;28;20853;-74
2022/03/02 16:23:14;;;;;;;1.50;1.03;;;12.20;53.40;;;;;;4998059;28;20984;-74
2022/03/02 16:25:53;;;;;;;1.50;1.00;;;12.10;53.60;;;;;;5021645;28;20467;-73
2022/03/02 16:28:21;;;;;;;1.50;1.00;;;12.10;53.80;;;;;;5000041;28;20484;-73
2022/03/02 16:30:51;;;;;;;1.50;1.00;;;12.00;54.20;;;;;;5022374;28;20463;-77
2022/03/02 16:33:19;;;;;;;1.50;1.10;;;12.00;52.90;;;;;;5029070;28;20462;-77
2022/03/02 16:35:46;;;;;;;1.50;1.07;;;11.90;53.90;;;;;;5027066;28;20471;-73
2022/03/02 16:38:13;;;;;;;1.50;1.10;;;11.90;54.20;;;;;;5027824;28;20999;-73
2022/03/02 16:40:41;;;;;;;1.50;1.40;;;11.80;54.20;;;;;;5026386;28;20473;-74
2022/03/02 16:43:12;;;;;;;1.50;1.10;;;11.80;54.40;;;;;;5028537;28;20498;-75
2022/03/02 16:45:39;;;;;;;1.50;1.10;;;11.70;55.00;;;;;;5028366;28;21013;-74
2022/03/02 16:48:06;;;;;;;1.47;1.10;;;11.70;54.30;;;;;;5027210;28;20487;-74
2022/03/02 16:50:34;;;;;;;1.50;1.10;;;11.60;54.60;;;;;;5026494;28;20470;-72
2022/03/02 16:53:01;;;;;;;1.50;1.10;;;11.60;54.10;;;;;;5026381;28;20455;-73
2022/03/02 16:55:28;;;;;;;1.50;1.10;;;11.50;54.90;;;;;;5024234;28;20735;-74
2022/03/02 16:57:55;;;;;;;1.50;1.20;;;11.40;54.30;;;;;;5020882;28;20984;-76
2022/03/02 17:00:30;;;;;;;1.87;1.77;;;11.40;55.30;;;;;;5025795;28;20521;-74
2022/03/02 17:02:58;;;;;;;1.47;1.00;;;11.30;55.40;;;;;;5025962;28;20543;-72
2022/03/02 17:05:26;;;;;;;1.50;1.20;;;11.20;55.50;;;;;;5024795;28;20542;-73
2022/03/02 17:07:53;;;;;;;1.47;1.00;;;11.10;56.50;;;;;;5024151;28;20481;-72
2022/03/02 17:10:20;;;;;;;1.50;1.10;;;11.00;56.00;;;;;;5024827;28;20976;-73
2022/03/02 17:12:47;;;;;;;1.47;1.10;;;11.00;56.40;;;;;;5027167;28;20502;-74
2022/03/02 17:15:15;;;;;;;1.50;1.10;;;10.90;56.10;;;;;;5024403;28;20468;-73
2022/03/02 17:17:44;;;;;;;1.40;1.10;;;10.80;56.70;;;;;;5021422;28;20478;-75
2022/03/02 17:20:11;;;;;;;1.50;1.20;;;10.70;57.00;;;;;;5020490;28;20455;-73
2022/03/02 17:22:40;;;;;;;1.50;1.10;;;10.60;57.30;;;;;;5020372;28;20463;-73
2022/03/02 17:25:09;;;;;;;1.50;1.10;;;10.50;57.80;;;;;;5022329;28;20494;-74
2022/03/02 17:27:37;;;;;;;1.50;1.20;;;10.30;58.90;;;;;;5020833;28;20463;-74
2022/03/02 17:30:06;;;;;;;1.50;1.20;;;10.20;60.60;;;;;;5021152;28;20490;-75
2022/03/02 17:32:33;;;;;;;1.50;1.10;;;10.00;61.50;;;;;;5021647;28;20735;-73
2022/03/02 17:35:02;;;;;;;1.50;1.20;;;9.90;61.60;;;;;;5021947;28;20494;-74
2022/03/02 17:37:29;;;;;;;1.50;1.10;;;9.80;61.70;;;;;;5022553;28;20985;-72
2022/03/02 17:39:59;;;;;;;1.50;1.20;;;9.70;62.60;;;;;;5021330;28;20463;-77
2022/03/02 17:42:26;;;;;;;1.50;1.20;;;9.50;62.60;;;;;;5021001;28;20554;-75
2022/03/02 17:44:53;;;;;;;1.50;1.30;;;9.40;64.10;;;;;;5023023;28;20468;-72
2022/03/02 17:47:20;;;;;;;1.50;1.20;;;9.40;63.90;;;;;;5024053;28;20471;-74
2022/03/02 17:49:48;;;;;;;1.50;1.20;;;9.30;63.70;;;;;;5023412;28;20990;-74
2022/03/02 17:52:16;;;;;;;1.50;1.20;;;9.20;63.80;;;;;;5024108;28;20463;-76
2022/03/02 17:54:43;;;;;;;1.50;1.20;;;9.10;65.00;;;;;;5022858;28;20475;-73
2022/03/02 17:57:11;;;;;;;1.50;1.20;;;9.00;65.80;;;;;;5023262;28;20463;-76
2022/03/02 17:59:38;;;;;;;1.50;1.17;;;8.90;66.40;;;;;;5023575;28;20519;-74
2022/03/02 18:02:05;;;;;;;1.50;1.20;;;8.70;66.40;;;;;;5022686;28;20497;-71
2022/03/02 18:04:32;;;;;;;1.50;1.30;;;8.60;66.80;;;;;;5023040;28;20956;-70
2022/03/02 18:06:59;;;;;;;1.50;1.10;;;8.50;67.40;;;;;;5023325;28;20467;-71
2022/03/02 18:09:28;;;;;;;1.50;1.20;;;8.40;67.60;;;;;;5022866;28;21030;-74
2022/03/02 18:11:55;;;;;;;1.50;1.20;;;8.20;68.40;;;;;;5022768;28;20475;-73
2022/03/02 18:14:22;;;;;;;1.50;1.33;;;8.10;69.20;;;;;;5023645;28;20463;-72
2022/03/02 18:16:49;;;;;;;1.50;1.20;;;8.00;69.40;;;;;;5011486;28;20997;-72
2022/03/02 18:19:17;;;;;;;1.50;1.20;;;8.00;70.30;;;;;;5019969;28;20487;-73
2022/03/02 18:21:45;;;;;;;1.50;1.20;;;7.90;69.60;;;;;;5022634;28;20469;-75
2022/03/02 18:24:13;;;;;;;1.50;1.20;;;7.80;70.10;;;;;;5019730;28;20471;-72
2022/03/02 18:26:50;;;;;;;1.50;1.20;;;7.70;70.10;;;;;;5022106;28;20493;-74
2022/03/02 18:29:18;;;;;;;1.50;1.20;;;7.70;70.90;;;;;;5024307;28;21026;-75
2022/03/02 18:31:46;;;;;;;1.50;1.20;;;7.60;71.40;;;;;;5024192;28;20498;-72
2022/03/02 18:34:13;;;;;;;1.50;1.20;;;7.50;71.10;;;;;;5024979;28;20463;-74
2022/03/02 18:36:43;;;;;;;1.50;1.30;;;7.40;72.00;;;;;;5023899;28;20955;-73
2022/03/02 18:39:15;;;;;;;2.47;1.93;;;7.40;72.40;;;;;;5022017;28;20513;-73
2022/03/02 18:41:44;;;;;;;1.50;1.20;;;7.30;72.90;;;;;;5023109;28;20463;-73
2022/03/02 18:44:15;;;;;;;1.50;1.30;;;7.30;72.40;;;;;;5023784;28;20467;-74
2022/03/02 18:46:43;;;;;;;1.50;1.30;;;7.30;73.10;;;;;;5024240;28;21025;-74
2022/03/02 18:49:11;;;;;;;1.50;1.27;;;7.30;73.40;;;;;;5024575;28;20664;-75
2022/03/02 18:51:38;;;;;;;1.50;1.30;;;7.30;73.70;;;;;;5021472;28;20455;-76
2022/03/02 18:54:05;;;;;;;1.50;1.30;;;7.30;73.80;;;;;;5022479;28;20470;-74
2022/03/02 18:56:34;;;;;;;1.50;1.30;;;7.30;74.10;;;;;;5023777;28;20471;-74
2022/03/02 18:59:01;;;;;;;1.50;1.30;;;7.30;73.80;;;;;;5024370;28;20575;-74
2022/03/02 19:01:30;;;;;;;1.50;1.30;;;7.20;74.10;;;;;;5023056;28;20551;-73
2022/03/02 19:03:57;;;;;;;1.50;1.20;;;7.20;74.20;;;;;;5025827;28;20463;-73
2022/03/02 19:06:25;;;;;;;1.50;1.30;;;7.10;74.70;;;;;;5025122;28;20471;-74
2022/03/02 19:08:52;;;;;;;1.50;1.20;;;7.10;74.80;;;;;;5025745;28;21015;-75
2022/03/02 19:11:20;;;;;;;1.50;1.30;;;7.00;74.90;;;;;;5024826;28;20473;-76
2022/03/02 19:13:47;;;;;;;1.50;1.20;;;6.90;75.60;;;;;;5026181;28;21148;-74
2022/03/02 19:16:14;;;;;;;1.50;1.20;;;6.80;76.10;;;;;;5024132;28;20486;-74
2022/03/02 19:18:43;;;;;;;1.50;1.30;;;6.80;76.70;;;;;;5024367;28;21049;-76
2022/03/02 19:21:11;;;;;;;1.50;1.30;;;6.70;77.30;;;;;;5014382;28;20706;-74
2022/03/02 19:23:41;;;;;;;1.50;1.30;;;6.70;77.30;;;;;;5020368;28;20578;-74
2022/03/02 19:26:08;;;;;;;1.50;1.30;;;6.60;77.30;;;;;;5018991;28;20465;-73
2022/03/02 19:28:36;;;;;;;1.50;1.30;;;6.50;77.00;;;;;;5012243;28;21094;-75
2022/03/02 19:31:05;;;;;;;1.50;1.30;;;6.50;77.70;;;;;;5014293;28;20524;-73
2022/03/02 19:33:32;;;;;;;1.50;1.30;;;6.40;77.90;;;;;;5019927;28;20471;-72
2022/03/02 19:36:00;;;;;;;1.50;1.30;;;6.30;78.30;;;;;;5016130;28;20526;-74
2022/03/02 19:41:12;;;;;;;1.53;1.30;;;6.20;79.20;;;;;;5017447;28;20937;-75
2022/03/02 19:43:39;;;;;;;1.57;1.30;;;6.20;79.20;;;;;;5018716;28;20482;-75
2022/03/02 19:46:09;;;;;;;1.57;1.30;;;6.10;79.80;;;;;;5019829;28;20838;-73
2022/03/02 19:48:37;;;;;;;1.57;1.30;;;6.10;80.00;;;;;;5019086;28;20491;-72
2022/03/02 19:51:06;;;;;;;1.50;1.40;;;6.10;79.70;;;;;;5017632;28;20801;-74
2022/03/02 19:53:35;;;;;;;1.50;1.30;;;6.00;79.70;;;;;;5021565;28;20467;-72
2022/03/02 19:56:04;;;;;;;1.57;1.30;;;6.00;80.00;;;;;;5019909;28;20925;-74
2022/03/02 19:58:32;;;;;;;1.50;1.30;;;5.90;80.30;;;;;;5018909;28;20921;-74
2022/03/02 20:01:00;;;;;;;1.53;1.40;;;5.90;80.30;;;;;;5015866;28;20978;-75
2022/03/02 20:03:27;;;;;;;1.60;1.40;;;5.90;80.20;;;;;;5020245;28;20459;-74
2022/03/02 20:05:55;;;;;;;1.53;1.30;;;5.90;79.70;;;;;;5018231;28;20463;-73
2022/03/02 20:08:23;;;;;;;1.77;1.67;;;5.90;80.00;;;;;;5023567;28;20490;-74
2022/03/02 20:10:50;;;;;;;1.60;1.30;;;5.90;79.70;;;;;;5021583;28;20506;-71
2022/03/02 20:13:17;;;;;;;1.50;1.30;;;5.80;79.40;;;;;;5022583;28;20478;-73
2022/03/02 20:15:45;;;;;;;1.60;1.40;;;5.90;79.00;;;;;;5022623;28;20977;-73
2022/03/02 20:18:13;;;;;;;1.50;1.30;;;5.90;78.70;;;;;;5023259;28;21077;-76
2022/03/02 20:20:40;;;;;;;1.60;1.50;;;5.90;78.70;;;;;;5020514;28;20463;-73
2022/03/02 20:23:07;;;;;;;1.50;1.40;;;5.90;77.60;;;;;;5023946;28;20959;-72
2022/03/02 20:25:35;;;;;;;1.50;1.30;;;6.00;77.20;;;;;;5024650;28;20470;-73
2022/03/02 20:28:04;;;;;;;1.50;1.30;;;6.00;76.30;;;;;;5021653;28;20871;-75
2022/03/02 20:30:33;;;;;;;1.50;1.40;;;6.00;75.80;;;;;;5022011;28;20521;-73
2022/03/02 20:33:01;;;;;;;1.53;1.33;;;6.10;74.90;;;;;;5018411;28;20481;-73
2022/03/02 20:35:29;;;;;;;1.50;1.40;;;6.10;74.60;;;;;;5020896;28;21111;-72
2022/03/02 20:37:55;;;;;;;1.60;1.40;;;6.20;73.80;;;;;;5020339;28;20502;-73
2022/03/02 20:40:23;;;;;;;1.60;1.50;;;6.30;73.70;;;;;;5018570;28;21142;-75
2022/03/02 20:42:51;;;;;;;1.57;1.47;;;6.30;73.60;;;;;;5021252;28;20525;-73
2022/03/02 20:45:20;;;;;;;1.53;1.30;;;6.40;73.40;;;;;;5019037;28;20474;-73
2022/03/02 20:47:47;;;;;;;1.57;1.47;;;6.40;73.50;;;;;;5020550;28;20514;-72
2022/03/02 20:50:14;;;;;;;1.50;1.30;;;6.40;73.70;;;;;;5020335;28;20509;-74
2022/03/02 20:52:42;;;;;;;1.50;1.30;;;6.40;73.80;;;;;;5021754;28;20459;-74
2022/03/02 20:55:10;;;;;;;1.50;1.23;;;6.40;74.00;;;;;;5023745;28;20951;-72
2022/03/02 20:57:37;;;;;;;1.50;1.30;;;6.40;74.10;;;;;;5023925;28;20793;-73
2022/03/02 21:00:07;;;;;;;1.50;1.30;;;6.40;73.90;;;;;;5021912;28;20489;-74
2022/03/02 21:02:35;;;;;;;1.50;1.30;;;6.40;73.50;;;;;;5020547;28;20761;-73
2022/03/02 21:05:02;;;;;;;1.50;1.30;;;6.40;73.70;;;;;;5019197;28;20511;-73
2022/03/02 21:07:28;;;;;;;1.50;1.30;;;6.40;73.70;;;;;;5020468;28;21211;-73
2022/03/02 21:09:55;;;;;;;2.13;1.93;;;6.40;73.70;;;;;;5022028;28;20498;-74
2022/03/02 21:12:22;;;;;;;1.50;1.30;;;6.30;73.90;;;;;;5022612;28;20569;-74
2022/03/02 21:14:49;;;;;;;1.50;1.30;;;6.30;74.00;;;;;;5022931;28;20806;-73
2022/03/02 21:17:17;;;;;;;1.97;1.87;;;6.20;74.10;;;;;;5013770;28;20475;-72
2022/03/02 21:19:46;;;;;;;1.87;1.77;;;6.20;74.20;;;;;;5017299;28;20475;-74
2022/03/02 21:22:14;;;;;;;1.50;1.30;;;6.10;74.30;;;;;;5018692;28;20478;-74
2022/03/02 21:24:41;;;;;;;3.30;3.10;;;6.10;74.60;;;;;;5020182;28;20947;-73
2022/03/02 21:27:09;;;;;;;1.50;1.40;;;6.00;74.40;;;;;;5019827;28;20848;-76
2022/03/02 21:29:35;;;;;;;1.50;1.30;;;6.00;74.70;;;;;;5021717;28;21003;-73
2022/03/02 21:32:03;;;;;;;1.50;1.30;;;5.90;74.80;;;;;;5023644;28;20471;-73
2022/03/02 21:34:33;;;;;;;1.50;1.40;;;5.90;74.80;;;;;;5026058;28;20978;-73
2022/03/02 21:37:00;;;;;;;1.60;1.50;;;5.80;74.80;;;;;;5021706;28;20471;-73
2022/03/02 21:39:27;;;;;;;1.50;1.30;;;5.80;75.00;;;;;;5024610;28;20487;-73
2022/03/02 21:41:54;;;;;;;1.50;1.30;;;5.80;75.00;;;;;;5026302;28;20470;-72
2022/03/02 21:44:21;;;;;;;1.50;1.30;;;5.70;75.20;;;;;;5026361;28;20834;-74
2022/03/02 21:46:47;;;;;;;1.50;1.30;;;5.70;75.40;;;;;;5025772;28;20924;-74
2022/03/02 21:49:15;;;;;;;1.50;1.30;;;5.70;75.40;;;;;;5024376;28;20475;-73
2022/03/02 21:51:44;;;;;;;1.50;1.30;;;5.60;75.30;;;;;;5015478;28;20487;-73
2022/03/02 21:54:10;;;;;;;1.50;1.30;;;5.60;75.30;;;;;;5022802;28;21022;-72
2022/03/02 21:56:37;;;;;;;1.50;1.40;;;5.60;75.00;;;;;;5020912;28;20456;-72
2022/03/02 21:59:04;;;;;;;1.50;1.30;;;5.60;74.80;;;;;;5025178;28;20491;-73
2022/03/02 22:01:31;;;;;;;1.50;1.30;;;5.60;74.60;;;;;;5011188;28;20479;-74
2022/03/02 22:03:58;;;;;;;3.90;2.07;;;5.70;74.60;;;;;;5018525;28;20493;-74
2022/03/02 22:06:25;;;;;;;1.50;1.40;;;5.60;74.40;;;;;;5011072;28;20544;-74
2022/03/02 22:08:53;;;;;;;1.50;1.30;;;5.60;74.50;;;;;;5023325;28;20545;-73
2022/03/02 22:11:20;;;;;;;1.50;1.30;;;5.60;74.40;;;;;;5024121;28;20487;-73
2022/03/02 22:13:47;;;;;;;1.50;1.30;;;5.60;74.40;;;;;;5050117;23;20561;-70
2022/03/02 22:16:14;;;;;;;3.60;3.40;;;5.60;74.50;;;;;;5021286;28;20956;-70
2022/03/02 22:18:41;;;;;;;1.50;1.30;;;5.60;74.50;;;;;;5023308;28;20455;-70
2022/03/02 22:21:07;;;;;;;1.50;1.40;;;5.50;74.70;;;;;;5025308;28;20463;-71
2022/03/02 22:23:35;;;;;;;1.60;1.50;;;5.50;74.50;;;;;;5025611;28;20494;-71
2022/03/02 22:26:03;;;;;;;1.50;1.30;;;5.50;75.10;;;;;;5027135;28;20502;-70
2022/03/02 22:28:30;;;;;;;1.50;1.30;;;5.50;75.10;;;;;;5024532;28;20538;-71
2022/03/02 22:30:59;;;;;;;1.53;1.40;;;5.50;75.20;;;;;;5024776;28;20507;-71
2022/03/02 22:33:26;;;;;;;1.50;1.30;;;5.50;75.30;;;;;;5024593;28;20533;-71
2022/03/02 22:35:53;;;;;;;1.53;1.40;;;5.40;75.30;;;;;;5026474;28;20479;-71
2022/03/02 22:38:20;;;;;;;1.50;1.33;;;5.40;75.30;;;;;;5021751;28;20463;-70
2022/03/02 22:40:46;;;;;;;1.50;1.40;;;5.40;75.40;;;;;;5025367;28;20459;-70
2022/03/02 22:43:15;;;;;;;1.50;1.30;;;5.40;75.50;;;;;;5027239;28;21003;-71
2022/03/02 22:45:42;;;;;;;1.50;1.40;;;5.30;75.70;;;;;;5027201;28;20471;-70
2022/03/02 22:48:09;;;;;;;1.60;1.50;;;5.30;75.90;;;;;;5026393;28;20466;-70
2022/03/02 22:50:36;;;;;;;1.50;1.30;;;5.20;76.00;;;;;;5025375;28;20501;-70
2022/03/02 22:53:03;;;;;;;1.50;1.30;;;5.20;76.10;;;;;;5027340;28;21004;-71
2022/03/02 22:55:31;;;;;;;1.60;1.40;;;5.20;76.20;;;;;;5027698;28;20463;-70
2022/03/02 22:57:58;;;;;;;1.57;1.40;;;5.20;76.30;;;;;;5027405;28;20467;-71
2022/03/02 23:01:16;;;;;;;1.50;1.40;;;5.10;76.40;;;;;;5025829;28;20466;-71
2022/03/02 23:03:45;;;;;;;1.57;1.30;;;5.10;76.60;;;;;;4963502;28;20482;-71
2022/03/02 23:14:25;;;;;;;1.50;1.30;;;5.00;76.40;;;;;;5026638;28;21184;-70
2022/03/02 23:19:37;;;;;;;1.60;1.50;;;5.00;76.50;;;;;;5018053;28;20568;-70
2022/03/02 23:22:05;;;;;;;1.50;1.30;;;4.90;76.60;;;;;;5022473;28;20480;-70
2022/03/02 23:24:32;;;;;;;1.57;1.40;;;4.90;76.50;;;;;;5026800;28;20466;-70
2022/03/02 23:26:59;;;;;;;1.50;1.30;;;4.90;76.70;;;;;;5027392;28;21021;-70
2022/03/02 23:29:26;;;;;;;1.57;1.40;;;4.90;76.90;;;;;;5025399;28;20467;-70
2022/03/02 23:31:55;;;;;;;1.60;1.43;;;4.80;77.00;;;;;;5026284;28;20585;-70
2022/03/02 23:34:22;;;;;;;1.50;1.30;;;4.80;77.10;;;;;;5025542;28;20459;-70
2022/03/02 23:36:51;;;;;;;1.50;1.20;;;4.70;77.40;;;;;;5020654;28;20467;-70
2022/03/02 23:39:17;;;;;;;1.57;1.40;;;4.70;77.60;;;;;;5025885;28;20459;-70
2022/03/02 23:41:44;;;;;;;1.57;1.40;;;4.70;77.70;;;;;;5028245;28;20459;-70
2022/03/02 23:44:11;;;;;;;1.53;1.30;;;4.60;77.70;;;;;;5030951;28;20475;-70
2022/03/02 23:46:38;;;;;;;1.50;1.30;;;4.60;77.80;;;;;;5030570;28;20463;-70
2022/03/02 23:49:05;;;;;;;1.50;1.30;;;4.50;78.00;;;;;;5030410;28;20478;-70
2022/03/02 23:51:32;;;;;;;1.60;1.50;;;4.50;78.10;;;;;;5028010;28;20483;-70
2022/03/02 23:54:00;;;;;;;1.53;1.33;;;4.50;78.10;;;;;;5026568;28;20482;-70
2022/03/02 23:56:26;;;;;;;1.57;1.40;;;4.50;78.30;;;;;;5029751;28;20471;-70
2022/03/02 23:58:54;;;;;;;1.60;1.50;;;4.40;78.20;;;;;;5030385;28;20549;-70
